createdAt,value
2022-11-07T00:02:06.386Z,11.49
2022-11-07T00:04:34.976Z,10.72
2022-11-07T00:07:03.468Z,10.53
2022-11-07T00:09:31.366Z,10.52
2022-11-07T00:11:59.636Z,10.70
2022-11-07T00:14:27.536Z,11.02
2022-11-07T00:16:55.478Z,11.41
2022-11-07T00:19:23.797Z,10.90
2022-11-07T00:21:51.746Z,11.66
2022-11-07T00:24:19.736Z,11.90
2022-11-07T00:26:48.473Z,11.48
2022-11-07T00:29:19.696Z,11.47
2022-11-07T00:31:48.966Z,11.44
2022-11-07T00:34:16.938Z,11.09
2022-11-07T00:36:44.802Z,11.27
2022-11-07T00:39:13.035Z,11.09
2022-11-07T00:41:40.978Z,11.57
2022-11-07T00:44:08.917Z,11.65
2022-11-07T00:46:37.206Z,11.48
2022-11-07T00:49:05.185Z,11.60
2022-11-07T00:51:33.226Z,11.62
2022-11-07T00:54:04.878Z,11.44
2022-11-07T00:56:32.720Z,11.71
2022-11-07T00:59:01.121Z,11.72
2022-11-07T01:01:32.134Z,11.00
2022-11-07T01:04:19.167Z,10.88
2022-11-07T01:06:47.439Z,11.34
2022-11-07T01:09:18.357Z,10.90
2022-11-07T01:11:47.400Z,11.13
2022-11-07T01:14:18.427Z,11.10
2022-11-07T01:16:46.237Z,11.57
2022-11-07T01:19:14.127Z,11.56
2022-11-07T01:21:42.997Z,11.64
2022-11-07T01:24:13.398Z,12.17
2022-11-07T01:26:42.888Z,11.81
2022-11-07T01:29:11.072Z,11.70
2022-11-07T01:31:38.939Z,11.64
2022-11-07T01:34:07.200Z,11.41
2022-11-07T01:36:35.588Z,11.48
2022-11-07T01:39:04.238Z,11.52
2022-11-07T01:41:34.699Z,11.67
2022-11-07T01:44:07.486Z,11.64
2022-11-07T01:46:43.406Z,11.94
2022-11-07T01:49:11.639Z,12.19
2022-11-07T01:51:51.158Z,12.39
2022-11-07T01:54:27.068Z,12.08
2022-11-07T01:56:57.357Z,12.44
2022-11-07T01:59:27.568Z,11.95
2022-11-07T02:01:55.982Z,11.75
2022-11-07T02:04:26.479Z,12.65
2022-11-07T02:07:05.916Z,12.06
2022-11-07T02:09:34.197Z,11.55
2022-11-07T02:12:02.262Z,12.01
2022-11-07T02:14:30.467Z,12.12
2022-11-07T02:16:58.698Z,12.65
2022-11-07T02:19:39.098Z,12.58
2022-11-07T02:22:28.657Z,12.38
2022-11-07T02:24:59.380Z,12.27
2022-11-07T02:27:29.408Z,12.10
2022-11-07T02:30:01.387Z,12.79
2022-11-07T02:32:29.699Z,12.34
2022-11-07T02:35:02.357Z,12.59
2022-11-07T02:37:34.067Z,12.28
2022-11-07T02:40:05.874Z,12.10
2022-11-07T02:42:44.021Z,12.14
2022-11-07T02:45:24.798Z,11.98
2022-11-07T02:47:52.989Z,12.11
2022-11-07T02:50:21.058Z,12.45
2022-11-07T02:52:48.957Z,12.45
2022-11-07T02:55:17.834Z,12.23
2022-11-07T02:57:45.726Z,12.25
2022-11-07T03:00:15.049Z,12.94
2022-11-07T03:02:50.161Z,13.70
2022-11-07T03:05:20.276Z,13.69
2022-11-07T03:07:50.149Z,12.64
2022-11-07T03:10:18.488Z,12.24
2022-11-07T03:12:46.489Z,12.20
2022-11-07T03:15:15.483Z,11.67
2022-11-07T03:17:43.487Z,11.51
2022-11-07T03:20:11.636Z,11.98
2022-11-07T03:22:40.338Z,12.12
2022-11-07T03:25:08.807Z,11.84
2022-11-07T03:27:36.747Z,12.25
2022-11-07T03:30:05.269Z,12.54
2022-11-07T03:32:35.007Z,12.33
2022-11-07T03:35:02.918Z,12.73
2022-11-07T03:37:31.229Z,13.19
2022-11-07T03:39:59.145Z,13.19
2022-11-07T03:42:27.037Z,12.44
2022-11-07T03:44:55.217Z,12.86
2022-11-07T03:47:23.201Z,12.30
2022-11-07T03:49:51.228Z,12.28
2022-11-07T03:52:19.447Z,12.39
2022-11-07T03:54:47.239Z,12.38
2022-11-07T03:57:15.106Z,12.26
2022-11-07T03:59:43.378Z,12.05
2022-11-07T04:02:11.291Z,12.52
2022-11-07T04:04:39.619Z,12.39
2022-11-07T04:07:07.617Z,12.06
2022-11-07T04:09:35.458Z,12.33
2022-11-07T04:12:22.188Z,12.23
2022-11-07T04:15:08.862Z,12.50
2022-11-07T04:17:37.028Z,12.76
2022-11-07T04:20:05.749Z,12.19
2022-11-07T04:22:33.756Z,12.13
2022-11-07T04:25:02.048Z,12.22
2022-11-07T04:27:47.093Z,12.25
2022-11-07T04:30:19.864Z,12.47
2022-11-07T04:32:52.718Z,12.55
2022-11-07T04:35:23.963Z,12.23
2022-11-07T04:37:52.147Z,12.09
2022-11-07T04:40:20.708Z,12.50
2022-11-07T04:42:49.300Z,11.92
2022-11-07T04:45:17.907Z,12.18
2022-11-07T04:47:46.575Z,12.18
2022-11-07T04:50:16.857Z,12.25
2022-11-07T04:52:45.876Z,11.63
2022-11-07T04:55:26.016Z,11.42
2022-11-07T04:57:54.087Z,12.50
2022-11-07T05:00:22.540Z,12.94
2022-11-07T05:02:50.892Z,12.19
2022-11-07T05:05:19.048Z,12.30
2022-11-07T05:07:47.377Z,12.14
2022-11-07T05:10:24.196Z,11.84
2022-11-07T05:12:53.127Z,11.47
2022-11-07T05:15:21.438Z,11.29
2022-11-07T05:17:49.597Z,12.26
2022-11-07T05:20:38.070Z,12.41
2022-11-07T05:23:16.356Z,11.87
2022-11-07T05:25:49.691Z,11.08
2022-11-07T05:28:36.968Z,12.66
2022-11-07T05:31:08.417Z,12.39
2022-11-07T05:33:36.414Z,12.13
2022-11-07T05:36:15.826Z,12.42
2022-11-07T05:38:46.513Z,12.07
2022-11-07T05:41:15.971Z,11.83
2022-11-07T05:43:44.586Z,11.76
2022-11-07T05:46:12.949Z,11.87
2022-11-07T05:48:40.927Z,11.94
2022-11-07T05:51:09.398Z,12.03
2022-11-07T05:53:37.467Z,11.89
2022-11-07T05:56:05.707Z,12.00
2022-11-07T05:58:34.189Z,11.97
2022-11-07T06:01:06.548Z,11.95
2022-11-07T06:03:34.773Z,11.92
2022-11-07T06:06:02.728Z,12.37
2022-11-07T06:08:30.755Z,13.13
2022-11-07T06:10:59.038Z,12.49
2022-11-07T06:13:26.988Z,12.01
2022-11-07T06:15:55.005Z,11.64
2022-11-07T06:18:23.448Z,11.40
2022-11-07T06:20:51.319Z,11.49
2022-11-07T06:23:20.229Z,12.33
2022-11-07T06:25:50.508Z,12.18
2022-11-07T06:28:18.608Z,13.01
2022-11-07T06:30:46.478Z,12.65
2022-11-07T06:33:17.084Z,12.46
2022-11-07T06:35:46.092Z,12.44
2022-11-07T06:38:15.555Z,12.68
2022-11-07T06:40:43.836Z,12.14
2022-11-07T06:43:19.819Z,12.59
2022-11-07T06:45:48.539Z,12.73
2022-11-07T06:48:16.531Z,12.21
2022-11-07T06:50:44.516Z,12.10
2022-11-07T06:53:14.290Z,12.88
2022-11-07T06:55:42.688Z,13.05
2022-11-07T06:58:10.597Z,12.70
2022-11-07T07:00:39.008Z,12.29
2022-11-07T07:03:07.159Z,11.73
2022-11-07T07:05:35.658Z,12.05
2022-11-07T07:08:06.707Z,12.13
2022-11-07T07:10:40.894Z,12.31
2022-11-07T07:13:09.289Z,12.08
2022-11-07T07:15:49.799Z,12.23
2022-11-07T07:18:20.055Z,12.06
2022-11-07T07:20:49.182Z,12.20
2022-11-07T07:23:18.280Z,12.21
2022-11-07T07:25:47.603Z,12.25
2022-11-07T07:28:15.498Z,12.46
2022-11-07T07:30:48.685Z,12.63
2022-11-07T07:33:20.137Z,12.64
2022-11-07T07:35:48.000Z,12.62
2022-11-07T07:38:16.337Z,12.49
2022-11-07T07:40:44.689Z,12.81
2022-11-07T07:43:12.857Z,13.22
2022-11-07T07:45:40.981Z,13.15
2022-11-07T07:48:09.345Z,12.87
2022-11-07T07:50:37.298Z,12.56
2022-11-07T07:53:09.027Z,13.11
2022-11-07T07:55:37.792Z,12.61
2022-11-07T07:58:05.798Z,12.72
2022-11-07T08:00:34.041Z,12.96
2022-11-07T08:03:03.807Z,12.96
2022-11-07T08:05:31.878Z,13.29
2022-11-07T08:07:59.948Z,12.43
2022-11-07T08:10:41.495Z,13.17
2022-11-07T08:13:10.417Z,12.80
2022-11-07T08:15:39.089Z,12.62
2022-11-07T08:18:07.077Z,12.71
2022-11-07T08:20:35.048Z,12.84
2022-11-07T08:23:05.059Z,12.99
2022-11-07T08:25:33.251Z,13.14
2022-11-07T08:28:01.769Z,12.77
2022-11-07T08:30:31.870Z,12.52
2022-11-07T08:33:04.426Z,13.05
2022-11-07T08:35:34.801Z,13.09
2022-11-07T08:38:07.103Z,12.70
2022-11-07T08:40:35.442Z,12.66
2022-11-07T08:43:03.367Z,12.47
2022-11-07T08:45:31.508Z,12.66
2022-11-07T08:48:00.411Z,13.17
2022-11-07T08:50:28.418Z,12.83
2022-11-07T08:53:02.179Z,12.60
2022-11-07T08:55:31.261Z,12.92
2022-11-07T08:58:03.726Z,12.95
2022-11-07T09:00:32.637Z,12.83
2022-11-07T09:03:38.805Z,12.97
2022-11-07T09:05:58.357Z,13.07
2022-11-07T09:08:26.438Z,13.21
2022-11-07T09:10:54.618Z,12.60
2022-11-07T09:13:23.033Z,13.14
2022-11-07T09:15:52.000Z,12.88
2022-11-07T09:18:22.829Z,12.98
2022-11-07T09:20:52.537Z,13.39
2022-11-07T09:23:21.012Z,13.65
2022-11-07T09:25:49.047Z,13.93
2022-11-07T09:28:17.377Z,13.98
2022-11-07T09:30:45.349Z,13.29
2022-11-07T09:33:13.667Z,13.67
2022-11-07T09:35:42.358Z,13.37
2022-11-07T09:38:10.259Z,13.44
2022-11-07T09:41:07.209Z,13.34
2022-11-07T09:43:48.038Z,13.90
2022-11-07T09:46:19.888Z,13.93
2022-11-07T09:48:53.857Z,14.09
2022-11-07T09:51:34.827Z,13.68
2022-11-07T09:54:12.879Z,13.61
2022-11-07T09:56:42.428Z,13.77
2022-11-07T09:59:25.407Z,13.77
2022-11-07T10:01:53.524Z,14.23
2022-11-07T10:04:25.373Z,14.40
2022-11-07T10:07:03.058Z,14.50
2022-11-07T10:10:06.658Z,14.07
2022-11-07T10:13:00.677Z,14.53
2022-11-07T10:15:39.947Z,13.98
2022-11-07T10:18:23.587Z,13.91
2022-11-07T10:21:37.635Z,14.07
2022-11-07T10:24:06.232Z,14.39
2022-11-07T10:26:35.489Z,14.02
2022-11-07T10:29:13.028Z,13.84
2022-11-07T10:31:55.718Z,13.93
2022-11-07T10:34:26.550Z,13.93
2022-11-07T10:36:54.876Z,14.30
2022-11-07T10:39:23.319Z,13.95
2022-11-07T10:42:10.139Z,13.88
2022-11-07T10:44:40.229Z,13.97
2022-11-07T10:47:19.030Z,13.62
2022-11-07T10:50:06.238Z,13.79
2022-11-07T10:52:34.107Z,13.92
2022-11-07T10:55:15.607Z,13.74
2022-11-07T10:57:44.428Z,13.68
2022-11-07T11:00:44.892Z,13.74
2022-11-07T11:03:22.340Z,13.52
2022-11-07T11:05:50.877Z,13.55
2022-11-07T11:08:21.597Z,13.55
2022-11-07T11:10:50.301Z,13.22
2022-11-07T11:13:34.009Z,13.51
2022-11-07T11:16:14.138Z,13.92
2022-11-07T11:18:50.278Z,13.54
2022-11-07T11:21:18.718Z,13.78
2022-11-07T11:23:47.216Z,13.88
2022-11-07T11:26:33.455Z,13.36
2022-11-07T11:29:09.380Z,13.40
2022-11-07T11:31:41.479Z,14.13
2022-11-07T11:34:45.186Z,13.80
2022-11-07T11:37:21.768Z,14.07
2022-11-07T11:39:59.027Z,14.19
2022-11-07T11:42:55.448Z,14.58
2022-11-07T11:46:00.648Z,14.05
2022-11-07T11:48:44.708Z,13.76
2022-11-07T11:51:23.224Z,14.06
2022-11-07T11:53:51.317Z,13.92
2022-11-07T11:56:27.420Z,13.67
2022-11-07T11:59:07.299Z,13.81
2022-11-07T12:01:38.817Z,13.86
2022-11-07T12:04:34.673Z,13.87
2022-11-07T12:07:35.071Z,13.30
2022-11-07T12:10:07.787Z,13.61
2022-11-07T12:13:32.808Z,13.98
2022-11-07T12:16:19.708Z,13.84
2022-11-07T12:19:22.906Z,14.44
2022-11-07T12:22:06.409Z,13.94
2022-11-07T12:24:50.220Z,14.59
2022-11-07T12:27:27.589Z,13.80
2022-11-07T12:30:06.411Z,14.21
2022-11-07T12:32:48.414Z,14.41
2022-11-07T12:35:25.558Z,14.19
2022-11-07T12:38:32.507Z,14.03
2022-11-07T12:41:30.686Z,13.82
2022-11-07T12:44:01.878Z,13.81
2022-11-07T12:47:05.148Z,14.41
2022-11-07T12:49:49.139Z,15.09
2022-11-07T12:52:19.987Z,14.84
2022-11-07T12:54:57.400Z,15.23
2022-11-07T12:57:27.730Z,15.44
2022-11-07T13:00:09.922Z,15.45
2022-11-07T13:02:51.432Z,15.83
2022-11-07T13:05:50.571Z,15.86
2022-11-07T13:08:30.967Z,15.68
2022-11-07T13:11:21.660Z,15.85
2022-11-07T13:13:53.170Z,15.95
2022-11-07T13:16:27.531Z,15.72
2022-11-07T13:18:56.360Z,15.83
2022-11-07T13:21:24.729Z,16.18
2022-11-07T13:23:53.066Z,16.15
2022-11-07T13:26:46.262Z,16.75
2022-11-07T13:29:39.578Z,16.31
2022-11-07T13:32:10.810Z,16.79
2022-11-07T13:34:52.227Z,16.63
2022-11-07T13:37:25.280Z,16.72
2022-11-07T13:39:58.846Z,16.26
2022-11-07T13:42:28.737Z,16.16
2022-11-07T13:44:59.876Z,16.47
2022-11-07T13:47:37.958Z,16.61
2022-11-07T13:50:17.811Z,16.71
2022-11-07T13:53:01.618Z,16.75
2022-11-07T13:55:46.200Z,17.20
2022-11-07T13:58:15.982Z,16.92
2022-11-07T14:00:44.320Z,16.18
2022-11-07T14:03:29.455Z,15.98
2022-11-07T14:05:57.737Z,15.73
2022-11-07T14:08:30.168Z,15.81
2022-11-07T14:10:59.190Z,16.12
2022-11-07T14:13:41.297Z,16.09
2022-11-07T14:16:21.917Z,15.29
2022-11-07T14:18:56.220Z,15.22
2022-11-07T14:21:28.487Z,15.61
2022-11-07T14:23:57.496Z,15.21
2022-11-07T14:26:31.335Z,14.77
2022-11-07T14:29:01.122Z,15.09
2022-11-07T14:31:34.137Z,15.25
2022-11-07T14:34:05.830Z,15.29
2022-11-07T14:36:34.841Z,14.63
2022-11-07T14:39:12.866Z,14.11
2022-11-07T14:41:44.897Z,13.19
2022-11-07T14:44:19.477Z,12.84
2022-11-07T14:46:48.141Z,13.11
2022-11-07T14:49:22.104Z,13.83
2022-11-07T14:51:50.241Z,13.23
2022-11-07T14:54:21.219Z,13.33
2022-11-07T14:56:54.499Z,12.54
2022-11-07T14:59:25.258Z,12.76
2022-11-07T15:02:19.326Z,13.06
2022-11-07T15:04:48.330Z,12.60
2022-11-07T15:07:30.876Z,12.82
2022-11-07T15:10:11.580Z,12.81
2022-11-07T15:12:51.917Z,12.81
2022-11-07T15:15:22.786Z,12.48
2022-11-07T15:17:52.969Z,13.03
2022-11-07T15:20:40.049Z,12.66
2022-11-07T15:23:14.247Z,12.98
2022-11-07T15:25:52.723Z,12.14
2022-11-07T15:28:29.053Z,11.85
2022-11-07T15:30:59.342Z,12.10
2022-11-07T15:33:32.492Z,11.94
2022-11-07T15:36:01.491Z,11.49
2022-11-07T15:38:30.466Z,11.69
2022-11-07T15:40:58.428Z,11.68
2022-11-07T15:43:26.839Z,11.66
2022-11-07T15:45:54.900Z,11.37
2022-11-07T15:48:30.968Z,11.23
2022-11-07T15:50:59.018Z,11.22
2022-11-07T15:53:28.917Z,11.50
2022-11-07T15:55:59.346Z,11.16
2022-11-07T15:58:29.337Z,10.84
2022-11-07T16:00:58.926Z,10.00
2022-11-07T16:03:28.253Z,10.13
2022-11-07T16:06:02.187Z,11.06
2022-11-07T16:08:30.902Z,11.31
2022-11-07T16:11:02.078Z,11.14
2022-11-07T16:13:30.468Z,11.19
2022-11-07T16:16:00.470Z,11.19
2022-11-07T16:18:32.728Z,10.96
2022-11-07T16:21:01.158Z,10.59
2022-11-07T16:23:29.106Z,10.67
2022-11-07T16:25:57.239Z,10.56
2022-11-07T16:28:26.338Z,10.36
2022-11-07T16:30:54.768Z,9.75
2022-11-07T16:33:23.816Z,10.17
2022-11-07T16:35:54.192Z,10.16
2022-11-07T16:38:23.924Z,10.11
2022-11-07T16:40:52.984Z,9.66
2022-11-07T16:43:21.197Z,9.99
2022-11-07T16:45:52.219Z,10.02
2022-11-07T16:48:27.591Z,9.72
2022-11-07T16:50:56.814Z,9.79
2022-11-07T16:53:27.890Z,9.50
2022-11-07T16:56:02.029Z,9.09
2022-11-07T16:58:34.311Z,9.40
2022-11-07T17:01:07.847Z,9.30
2022-11-07T17:03:36.239Z,9.67
2022-11-07T17:06:04.657Z,9.70
2022-11-07T17:08:38.724Z,9.43
2022-11-07T17:11:07.718Z,9.12
2022-11-07T17:13:35.829Z,9.12
2022-11-07T17:16:03.827Z,9.03
2022-11-07T17:18:32.079Z,9.42
2022-11-07T17:21:00.002Z,8.78
2022-11-07T17:23:31.273Z,7.91
2022-11-07T17:26:02.700Z,7.38
2022-11-07T17:28:30.567Z,8.43
2022-11-07T17:30:58.499Z,8.98
2022-11-07T17:33:26.901Z,9.04
2022-11-07T17:35:55.871Z,8.29
2022-11-07T17:38:25.627Z,8.26
2022-11-07T17:40:53.956Z,7.84
2022-11-07T17:43:22.129Z,8.11
2022-11-07T17:45:50.097Z,8.38
2022-11-07T17:48:18.930Z,8.12
2022-11-07T17:50:47.079Z,8.54
2022-11-07T17:53:15.021Z,7.95
2022-11-07T17:55:43.340Z,7.90
2022-11-07T17:58:11.256Z,8.70
2022-11-07T18:00:39.107Z,9.30
2022-11-07T18:03:07.489Z,9.47
2022-11-07T18:05:35.589Z,8.89
2022-11-07T18:08:03.672Z,7.82
2022-11-07T18:10:33.110Z,8.35
2022-11-07T18:13:01.256Z,8.80
2022-11-07T18:15:29.177Z,8.81
2022-11-07T18:17:57.446Z,7.91
2022-11-07T18:20:26.216Z,7.98
2022-11-07T18:22:54.220Z,7.19
2022-11-07T18:25:22.376Z,7.11
2022-11-07T18:27:50.487Z,7.48
2022-11-07T18:30:18.420Z,7.12
2022-11-07T18:32:46.638Z,7.55
2022-11-07T18:35:14.601Z,7.25
2022-11-07T18:37:42.531Z,8.04
2022-11-07T18:40:11.769Z,8.57
2022-11-07T18:42:43.637Z,8.13
2022-11-07T18:45:13.558Z,8.16
2022-11-07T18:47:41.628Z,8.24
2022-11-07T18:50:11.400Z,8.23
2022-11-07T18:52:39.811Z,8.00
2022-11-07T18:55:09.779Z,8.02
2022-11-07T18:57:37.691Z,7.98
2022-11-07T19:00:10.680Z,8.04
2022-11-07T19:02:41.438Z,8.15
2022-11-07T19:05:09.839Z,8.04
2022-11-07T19:07:40.067Z,7.45
2022-11-07T19:10:08.629Z,7.90
2022-11-07T19:12:36.840Z,6.98
2022-11-07T19:15:06.321Z,7.76
2022-11-07T19:17:35.765Z,7.74
2022-11-07T19:20:05.972Z,8.07
2022-11-07T19:22:39.133Z,7.85
2022-11-07T19:25:07.806Z,7.40
2022-11-07T19:27:35.808Z,8.05
2022-11-07T19:30:06.470Z,7.88
2022-11-07T19:32:35.016Z,7.95
2022-11-07T19:35:03.057Z,8.08
2022-11-07T19:37:30.958Z,7.63
2022-11-07T19:39:59.230Z,7.94
2022-11-07T19:42:28.822Z,7.61
2022-11-07T19:44:56.952Z,7.54
2022-11-07T19:47:26.384Z,7.49
2022-11-07T19:49:54.347Z,7.48
2022-11-07T19:52:22.259Z,6.87
2022-11-07T19:54:51.441Z,7.44
2022-11-07T19:57:19.487Z,7.59
2022-11-07T19:59:47.558Z,7.58
2022-11-07T20:02:32.482Z,7.79
2022-11-07T20:05:01.653Z,7.69
2022-11-07T20:07:29.628Z,6.91
2022-11-07T20:09:58.997Z,7.64
2022-11-07T20:12:27.537Z,7.65
2022-11-07T20:14:55.431Z,7.16
2022-11-07T20:17:23.569Z,7.42
2022-11-07T20:19:52.369Z,7.18
2022-11-07T20:22:20.296Z,7.06
2022-11-07T20:24:48.200Z,7.36
2022-11-07T20:27:16.578Z,7.64
2022-11-07T20:29:44.618Z,7.05
2022-11-07T20:32:12.655Z,6.50
2022-11-07T20:34:40.874Z,7.13
2022-11-07T20:37:08.778Z,7.67
2022-11-07T20:39:36.770Z,7.30
2022-11-07T20:42:05.098Z,7.55
2022-11-07T20:44:33.016Z,7.08
2022-11-07T20:47:00.938Z,7.77
2022-11-07T20:49:29.918Z,7.60
2022-11-07T20:51:58.621Z,7.47
2022-11-07T20:54:26.579Z,7.76
2022-11-07T20:56:54.738Z,7.33
2022-11-07T20:59:22.735Z,7.42
2022-11-07T21:01:51.322Z,7.33
2022-11-07T21:04:19.650Z,7.73
2022-11-07T21:06:47.608Z,7.50
2022-11-07T21:09:15.597Z,7.68
2022-11-07T21:11:43.888Z,7.60
2022-11-07T21:14:11.757Z,7.50
2022-11-07T21:16:39.578Z,7.56
2022-11-07T21:19:08.910Z,7.50
2022-11-07T21:21:36.853Z,7.48
2022-11-07T21:24:04.989Z,7.32
2022-11-07T21:26:36.179Z,7.23
2022-11-07T21:29:09.078Z,7.11
2022-11-07T21:31:39.476Z,5.77
2022-11-07T21:34:09.439Z,6.31
2022-11-07T21:36:38.179Z,6.07
2022-11-07T21:39:07.736Z,7.10
2022-11-07T21:41:36.273Z,6.83
2022-11-07T21:44:04.679Z,6.85
2022-11-07T21:46:34.617Z,6.94
2022-11-07T21:49:02.573Z,6.21
2022-11-07T21:51:32.100Z,6.37
2022-11-07T21:54:00.673Z,7.00
2022-11-07T21:56:34.269Z,6.96
2022-11-07T21:59:04.656Z,6.88
2022-11-07T22:01:37.274Z,7.06
2022-11-07T22:04:11.821Z,7.16
2022-11-07T22:06:45.536Z,7.18
2022-11-07T22:09:16.211Z,7.10
2022-11-07T22:11:44.487Z,7.69
2022-11-07T22:14:17.555Z,7.74
2022-11-07T22:16:46.419Z,7.56
2022-11-07T22:19:15.464Z,8.18
2022-11-07T22:21:43.427Z,8.74
2022-11-07T22:24:11.653Z,8.79
2022-11-07T22:26:39.577Z,8.62
2022-11-07T22:29:07.627Z,8.50
2022-11-07T22:31:36.497Z,8.22
2022-11-07T22:34:04.379Z,8.16
2022-11-07T22:36:32.556Z,8.23
2022-11-07T22:39:00.948Z,8.25
2022-11-07T22:41:29.669Z,7.93
2022-11-07T22:43:58.317Z,7.71
2022-11-07T22:46:29.178Z,7.65
2022-11-07T22:48:58.451Z,7.12
2022-11-07T22:51:29.768Z,7.69
2022-11-07T22:53:59.428Z,7.57
2022-11-07T22:56:27.649Z,7.89
2022-11-07T22:58:55.738Z,7.69
2022-11-07T23:01:26.868Z,7.42
2022-11-07T23:03:56.547Z,7.58
2022-11-07T23:06:25.460Z,7.02
2022-11-07T23:08:53.514Z,7.05
2022-11-07T23:14:17.587Z,7.98
2022-11-07T23:16:51.358Z,7.64
2022-11-07T23:19:21.495Z,7.73
2022-11-07T23:21:51.147Z,7.00
2022-11-07T23:24:19.368Z,7.16
2022-11-07T23:26:47.588Z,7.15
2022-11-07T23:29:18.389Z,7.20
2022-11-07T23:31:47.708Z,7.50
2022-11-07T23:34:17.109Z,7.59
2022-11-07T23:36:45.280Z,7.70
2022-11-07T23:39:15.977Z,7.55
2022-11-07T23:41:44.799Z,8.29
2022-11-07T23:44:13.099Z,8.59
2022-11-07T23:46:59.733Z,8.57
2022-11-07T23:49:46.610Z,8.13
2022-11-07T23:52:14.640Z,7.73
2022-11-07T23:55:01.573Z,8.19
2022-11-07T23:57:29.440Z,8.11
